createdAt,value
2018-11-06T00:00:47.056Z,100923.86
2018-11-06T00:01:45.382Z,100924.10
2018-11-06T00:02:46.832Z,100923.68
2018-11-06T00:03:46.945Z,100923.45
2018-11-06T00:04:47.339Z,100923.23
2018-11-06T00:05:47.749Z,100922.39
2018-11-06T00:06:48.518Z,100922.00
2018-11-06T00:07:48.610Z,100921.86
2018-11-06T00:08:49.234Z,100922.31
2018-11-06T00:09:49.754Z,100922.17
2018-11-06T00:10:50.289Z,100922.50
2018-11-06T00:11:51.656Z,100923.03
2018-11-06T00:12:08.702Z,100933.91
2018-11-06T00:13:10.069Z,100933.83
2018-11-06T00:14:11.020Z,100934.08
2018-11-06T00:15:11.611Z,100933.66
2018-11-06T00:16:12.592Z,100933.98
2018-11-06T00:17:12.855Z,100934.27
2018-11-06T00:18:13.472Z,100934.27
2018-11-06T00:19:12.753Z,100933.94
2018-11-06T00:20:14.374Z,100934.02
2018-11-06T00:21:15.263Z,100934.19
2018-11-06T00:22:15.734Z,100933.80
2018-11-06T00:23:16.125Z,100933.73
2018-11-06T00:24:15.957Z,100933.34
2018-11-06T00:25:17.739Z,100933.03
2018-11-06T00:26:17.721Z,100932.56
2018-11-06T00:27:18.172Z,100932.33
2018-11-06T00:28:18.525Z,100931.80
2018-11-06T00:29:19.474Z,100930.81
2018-11-06T00:30:20.229Z,100931.09
2018-11-06T00:31:20.630Z,100930.11
2018-11-06T00:32:20.997Z,100929.86
2018-11-06T00:33:21.098Z,100929.02
2018-11-06T00:34:21.595Z,100928.52
2018-11-06T00:35:20.750Z,100928.02
2018-11-06T00:36:21.799Z,100927.52
2018-11-06T00:37:22.193Z,100926.84
2018-11-06T00:38:23.631Z,100926.76
2018-11-06T00:39:22.948Z,100926.25
2018-11-06T00:40:23.704Z,100926.25
2018-11-06T00:41:24.144Z,100926.08
2018-11-06T00:42:24.867Z,100926.00
2018-11-06T00:43:25.417Z,100926.09
2018-11-06T00:44:25.933Z,100925.50
2018-11-06T00:45:26.647Z,100925.25
2018-11-06T00:46:26.971Z,100925.16
2018-11-06T00:47:27.485Z,100925.11
2018-11-06T00:48:27.998Z,100924.43
2018-11-06T00:49:28.501Z,100924.63
2018-11-06T00:50:29.153Z,100924.23
2018-11-06T00:51:29.445Z,100923.76
2018-11-06T00:52:29.586Z,100922.95
2018-11-06T00:53:29.886Z,100923.05
2018-11-06T00:54:30.138Z,100922.58
2018-11-06T00:55:30.544Z,100922.10
2018-11-06T00:56:30.799Z,100922.09
2018-11-06T00:57:31.425Z,100921.70
2018-11-06T00:58:31.666Z,100921.73
2018-11-06T00:58:43.625Z,100926.72
2018-11-06T00:59:42.987Z,100926.17
2018-11-06T01:00:43.369Z,100925.91
2018-11-06T01:01:43.833Z,100926.00
2018-11-06T01:02:44.200Z,100926.25
2018-11-06T01:03:44.636Z,100926.75
2018-11-06T01:04:45.008Z,100928.02
2018-11-06T01:05:45.973Z,100928.87
2018-11-06T01:06:46.361Z,100929.21
2018-11-06T01:07:47.068Z,100929.91
2018-11-06T01:08:46.402Z,100931.34
2018-11-06T01:09:47.751Z,100932.25
2018-11-06T01:10:48.127Z,100933.21
2018-11-06T01:11:48.104Z,100934.12
2018-11-06T01:12:48.432Z,100935.05
2018-11-06T01:13:48.742Z,100935.97
2018-11-06T01:14:49.009Z,100936.64
2018-11-06T01:15:49.501Z,100937.31
2018-11-06T01:16:49.833Z,100938.02
2018-11-06T01:17:51.322Z,100938.85
2018-11-06T01:18:50.656Z,100939.38
2018-11-06T01:19:51.490Z,100940.39
2018-11-06T01:20:52.147Z,100940.98
2018-11-06T01:21:52.511Z,100941.92
2018-11-06T01:22:53.055Z,100943.02
2018-11-06T01:23:53.436Z,100943.88
2018-11-06T01:24:53.980Z,100944.13
2018-11-06T01:25:54.945Z,100944.97
2018-11-06T01:26:55.223Z,100945.64
2018-11-06T01:27:55.583Z,100946.39
2018-11-06T01:28:56.010Z,100946.09
2018-11-06T01:29:56.396Z,100946.50
2018-11-06T01:30:56.725Z,100946.95
2018-11-06T01:31:57.099Z,100946.61
2018-11-06T01:32:57.415Z,100946.86
2018-11-06T01:33:57.653Z,100947.15
2018-11-06T01:34:57.944Z,100946.81
2018-11-06T01:35:58.520Z,100947.14
2018-11-06T01:36:59.800Z,100946.72
2018-11-06T01:37:59.151Z,100946.39
2018-11-06T01:38:59.461Z,100946.55
2018-11-06T01:39:59.767Z,100946.89
2018-11-06T01:41:00.365Z,100946.50
2018-11-06T01:42:00.718Z,100946.25
2018-11-06T01:43:01.070Z,100945.73
2018-11-06T01:44:01.394Z,100945.69
2018-11-06T01:44:09.470Z,100942.23
2018-11-06T01:45:10.710Z,100941.67
2018-11-06T01:46:11.413Z,100941.34
2018-11-06T01:47:11.755Z,100941.09
2018-11-06T01:48:12.199Z,100941.84
2018-11-06T01:49:12.946Z,100941.67
2018-11-06T01:50:13.357Z,100941.34
2018-11-06T01:51:13.820Z,100941.06
2018-11-06T01:52:14.589Z,100940.34
2018-11-06T01:53:15.069Z,100940.34
2018-11-06T01:54:15.419Z,100940.89
2018-11-06T01:55:15.784Z,100940.98
2018-11-06T01:56:16.193Z,100941.23
2018-11-06T01:57:16.568Z,100940.98
2018-11-06T01:58:17.062Z,100941.45
2018-11-06T01:59:17.363Z,100941.45
2018-11-06T02:00:17.918Z,100941.43
2018-11-06T02:01:18.229Z,100941.43
2018-11-06T02:02:18.697Z,100941.35
2018-11-06T02:03:19.436Z,100941.35
2018-11-06T02:04:19.875Z,100941.44
2018-11-06T02:05:20.297Z,100941.66
2018-11-06T02:06:20.625Z,100941.23
2018-11-06T02:07:21.368Z,100941.38
2018-11-06T02:08:22.119Z,100941.55
2018-11-06T02:09:22.563Z,100941.80
2018-11-06T02:10:23.241Z,100941.72
2018-11-06T02:11:23.759Z,100942.00
2018-11-06T02:12:24.125Z,100941.82
2018-11-06T02:13:24.541Z,100942.11
2018-11-06T02:14:24.837Z,100941.69
2018-11-06T02:15:25.223Z,100941.52
2018-11-06T02:16:25.555Z,100940.70
2018-11-06T02:17:26.540Z,100940.36
2018-11-06T02:18:27.390Z,100940.22
2018-11-06T02:19:27.724Z,100939.83
2018-11-06T02:20:28.093Z,100939.10
2018-11-06T02:21:28.351Z,100938.67
2018-11-06T02:22:28.893Z,100938.20
2018-11-06T02:23:29.254Z,100937.55
2018-11-06T02:24:29.582Z,100937.11
2018-11-06T02:25:29.933Z,100936.13
2018-11-06T02:26:30.228Z,100935.02
2018-11-06T02:26:38.344Z,100929.12
2018-11-06T02:27:39.683Z,100928.19
2018-11-06T02:28:40.242Z,100927.69
2018-11-06T02:29:40.616Z,100927.02
2018-11-06T02:30:41.075Z,100926.13
2018-11-06T02:31:41.613Z,100925.13
2018-11-06T02:32:42.375Z,100924.37
2018-11-06T02:33:42.690Z,100923.77
2018-11-06T02:34:43.403Z,100922.88
2018-11-06T02:35:43.629Z,100922.13
2018-11-06T02:36:43.904Z,100921.63
2018-11-06T02:37:44.422Z,100921.63
2018-11-06T02:38:43.688Z,100921.70
2018-11-06T02:39:43.960Z,100921.20
2018-11-06T02:40:45.231Z,100921.04
2018-11-06T02:41:45.493Z,100921.28
2018-11-06T02:42:45.814Z,100921.28
2018-11-06T02:43:46.142Z,100921.56
2018-11-06T02:44:46.527Z,100921.14
2018-11-06T02:45:46.749Z,100920.89
2018-11-06T02:46:47.042Z,100920.97
2018-11-06T02:47:47.476Z,100921.30
2018-11-06T02:48:47.849Z,100921.48
2018-11-06T02:49:49.172Z,100921.14
2018-11-06T02:50:48.434Z,100920.30
2018-11-06T02:51:48.715Z,100919.47
2018-11-06T02:52:47.922Z,100919.22
2018-11-06T02:53:49.367Z,100918.20
2018-11-06T02:54:49.677Z,100917.70
2018-11-06T02:55:50.022Z,100917.53
2018-11-06T02:56:50.385Z,100916.86
2018-11-06T02:57:50.755Z,100916.86
2018-11-06T02:58:51.268Z,100916.95
2018-11-06T02:59:51.535Z,100917.12
2018-11-06T03:00:51.789Z,100917.71
2018-11-06T03:01:52.122Z,100917.71
2018-11-06T03:02:52.470Z,100918.05
2018-11-06T03:03:53.038Z,100918.55
2018-11-06T03:04:53.446Z,100919.13
2018-11-06T03:05:53.718Z,100920.39
2018-11-06T03:06:54.070Z,100921.00
2018-11-06T03:07:54.273Z,100921.83
2018-11-06T03:08:54.514Z,100922.70
2018-11-06T03:09:54.787Z,100922.81
2018-11-06T03:10:55.506Z,100922.75
2018-11-06T03:11:55.059Z,100922.83
2018-11-06T03:12:56.803Z,100923.11
2018-11-06T03:13:57.619Z,100923.47
2018-11-06T03:14:07.575Z,100922.39
2018-11-06T03:15:08.802Z,100921.66
2018-11-06T03:16:09.289Z,100922.33
2018-11-06T03:17:09.604Z,100922.00
2018-11-06T03:18:10.097Z,100922.53
2018-11-06T03:19:09.393Z,100922.86
2018-11-06T03:20:10.805Z,100922.80
2018-11-06T03:21:11.661Z,100922.91
2018-11-06T03:22:11.864Z,100922.85
2018-11-06T03:23:12.201Z,100923.12
2018-11-06T03:24:12.648Z,100922.87
2018-11-06T03:25:13.062Z,100923.06
2018-11-06T03:26:13.327Z,100922.83
2018-11-06T03:27:13.711Z,100922.27
2018-11-06T03:28:14.045Z,100921.68
2018-11-06T03:29:14.351Z,100921.12
2018-11-06T03:30:14.712Z,100920.98
2018-11-06T03:31:15.202Z,100920.55
2018-11-06T03:32:14.691Z,100919.82
2018-11-06T03:33:16.241Z,100919.59
2018-11-06T03:34:16.600Z,100919.53
2018-11-06T03:35:17.263Z,100919.53
2018-11-06T03:36:17.921Z,100920.23
2018-11-06T03:37:18.449Z,100920.51
2018-11-06T03:38:18.626Z,100921.00
2018-11-06T03:39:19.191Z,100921.87
2018-11-06T03:40:19.691Z,100922.63
2018-11-06T03:41:19.969Z,100923.55
2018-11-06T03:42:20.482Z,100923.73
2018-11-06T03:43:20.930Z,100924.16
2018-11-06T03:44:21.584Z,100924.73
2018-11-06T03:45:21.863Z,100925.52
2018-11-06T03:46:22.356Z,100926.70
2018-11-06T03:47:22.897Z,100927.36
2018-11-06T03:48:23.268Z,100928.31
2018-11-06T03:49:23.728Z,100929.00
2018-11-06T03:50:24.041Z,100930.03
2018-11-06T03:51:24.376Z,100930.61
2018-11-06T03:52:24.804Z,100931.39
2018-11-06T03:53:25.313Z,100932.25
2018-11-06T03:54:26.673Z,100932.94
2018-11-06T03:55:26.209Z,100934.06
2018-11-06T03:56:27.061Z,100934.84
2018-11-06T03:57:27.494Z,100935.45
2018-11-06T03:58:28.010Z,100935.80
2018-11-06T03:59:28.120Z,100936.41
2018-11-06T04:00:29.486Z,100936.77
2018-11-06T04:00:37.933Z,100949.27
2018-11-06T04:01:38.240Z,100948.68
2018-11-06T04:02:39.633Z,100948.34
2018-11-06T04:03:40.026Z,100947.86
2018-11-06T04:04:40.417Z,100948.39
2018-11-06T04:05:40.845Z,100948.55
2018-11-06T04:06:41.198Z,100948.83
2018-11-06T04:07:41.593Z,100949.11
2018-11-06T04:08:41.686Z,100949.69
2018-11-06T04:09:42.017Z,100950.28
2018-11-06T04:10:42.285Z,100951.45
2018-11-06T04:11:43.052Z,100952.95
2018-11-06T04:12:43.371Z,100953.82
2018-11-06T04:13:43.937Z,100954.56
2018-11-06T04:14:43.261Z,100955.77
2018-11-06T04:15:44.781Z,100956.92
2018-11-06T04:16:45.165Z,100958.05
2018-11-06T04:17:45.434Z,100959.13
2018-11-06T04:18:46.030Z,100960.05
2018-11-06T04:19:46.593Z,100960.34
2018-11-06T04:20:46.967Z,100960.58
2018-11-06T04:21:47.407Z,100961.08
2018-11-06T04:22:48.298Z,100960.83
2018-11-06T04:23:48.793Z,100960.91
2018-11-06T04:24:48.936Z,100960.75
2018-11-06T04:25:49.293Z,100960.58
2018-11-06T04:26:50.164Z,100960.84
2018-11-06T04:27:50.788Z,100960.39
2018-11-06T04:28:51.756Z,100960.56
2018-11-06T04:29:52.157Z,100960.45
2018-11-06T04:30:52.628Z,100959.95
2018-11-06T04:31:53.090Z,100959.20
2018-11-06T04:32:53.554Z,100958.03
2018-11-06T04:33:54.192Z,100957.58
2018-11-06T04:34:54.613Z,100957.16
2018-11-06T04:35:54.921Z,100956.16
2018-11-06T04:36:55.455Z,100955.41
2018-11-06T04:37:56.327Z,100954.32
2018-11-06T04:38:56.604Z,100953.96
2018-11-06T04:39:56.917Z,100953.21
2018-11-06T04:40:58.766Z,100952.54
2018-11-06T04:41:58.139Z,100951.79
2018-11-06T04:42:58.895Z,100951.50
2018-11-06T04:43:59.566Z,100950.59
2018-11-06T04:44:59.909Z,100950.39
2018-11-06T04:46:00.293Z,100949.73
2018-11-06T04:47:01.864Z,100948.78
2018-11-06T04:48:01.519Z,100947.84
2018-11-06T04:49:35.064Z,100925.91
2018-11-06T04:50:34.692Z,100925.35
2018-11-06T04:51:34.740Z,100925.24
2018-11-06T04:52:35.181Z,100924.57
2018-11-06T04:53:35.985Z,100923.40
2018-11-06T04:54:36.253Z,100922.81
2018-11-06T04:55:36.857Z,100921.89
2018-11-06T04:56:37.454Z,100920.98
2018-11-06T04:57:38.239Z,100919.52
2018-11-06T04:58:38.704Z,100917.93
2018-11-06T04:59:39.162Z,100915.59
2018-11-06T05:00:39.632Z,100914.16
2018-11-06T05:01:40.132Z,100912.07
2018-11-06T05:02:40.887Z,100910.28
2018-11-06T05:03:41.147Z,100908.36
2018-11-06T05:04:41.613Z,100906.44
2018-11-06T05:05:42.903Z,100904.56
2018-11-06T05:06:42.222Z,100902.80
2018-11-06T05:07:42.534Z,100900.77
2018-11-06T05:08:44.051Z,100898.42
2018-11-06T05:09:43.361Z,100896.41
2018-11-06T05:10:42.671Z,100894.42
2018-11-06T05:11:44.010Z,100892.83
2018-11-06T05:12:44.392Z,100891.19
2018-11-06T05:13:43.660Z,100888.78
2018-11-06T05:14:44.953Z,100887.35
2018-11-06T05:15:45.785Z,100885.00
2018-11-06T05:16:46.282Z,100882.77
2018-11-06T05:17:46.594Z,100880.08
2018-11-06T05:18:46.989Z,100877.59
2018-11-06T05:19:47.608Z,100875.86
2018-11-06T05:20:47.047Z,100874.04
2018-11-06T05:21:48.364Z,100872.78
2018-11-06T05:22:48.698Z,100871.27
2018-11-06T05:23:49.051Z,100869.70
2018-11-06T05:24:49.710Z,100867.95
2018-11-06T05:25:50.038Z,100866.69
2018-11-06T05:26:50.311Z,100864.76
2018-11-06T05:27:50.695Z,100863.08
2018-11-06T05:28:51.298Z,100862.08
2018-11-06T05:29:51.606Z,100860.37
2018-11-06T05:30:52.220Z,100858.54
2018-11-06T05:31:52.260Z,100856.75
2018-11-06T05:32:52.692Z,100855.39
2018-11-06T05:33:51.983Z,100853.44
2018-11-06T05:34:53.414Z,100851.41
2018-11-06T05:35:52.642Z,100849.29
2018-11-06T05:36:53.917Z,100847.90
2018-11-06T05:37:02.912Z,100826.95
2018-11-06T05:38:03.206Z,100826.36
2018-11-06T05:39:03.649Z,100826.11
2018-11-06T05:40:03.279Z,100825.86
2018-11-06T05:41:04.703Z,100825.84
2018-11-06T05:42:05.159Z,100825.75
2018-11-06T05:43:05.264Z,100825.89
2018-11-06T05:44:05.568Z,100826.45
2018-11-06T05:45:04.949Z,100826.63
2018-11-06T05:46:06.362Z,100827.44
2018-11-06T05:47:07.025Z,100828.45
2018-11-06T05:48:07.452Z,100830.09
2018-11-06T05:49:07.882Z,100831.94
2018-11-06T05:50:08.405Z,100833.67
2018-11-06T05:51:08.701Z,100835.52
2018-11-06T05:52:09.024Z,100837.45
2018-11-06T05:53:09.388Z,100839.63
2018-11-06T05:54:08.985Z,100841.39
2018-11-06T05:55:10.477Z,100843.06
2018-11-06T05:56:10.895Z,100844.66
2018-11-06T05:57:11.156Z,100846.33
2018-11-06T05:58:11.449Z,100848.01
2018-11-06T05:59:11.791Z,100849.69
2018-11-06T06:00:12.219Z,100851.61
2018-11-06T06:01:11.577Z,100853.57
2018-11-06T06:02:12.849Z,100855.41
2018-11-06T06:03:13.192Z,100857.70
2018-11-06T06:04:13.714Z,100859.04
2018-11-06T06:05:12.954Z,100860.80
2018-11-06T06:06:14.318Z,100862.50
2018-11-06T06:07:14.698Z,100864.59
2018-11-06T06:08:15.231Z,100866.52
2018-11-06T06:09:15.590Z,100868.48
2018-11-06T06:10:15.966Z,100870.41
2018-11-06T06:11:16.575Z,100872.45
2018-11-06T06:12:16.600Z,100874.06
2018-11-06T06:13:16.927Z,100875.84
2018-11-06T06:14:18.117Z,100877.94
2018-11-06T06:15:18.389Z,100880.14
2018-11-06T06:16:18.754Z,100881.77
2018-11-06T06:17:18.427Z,100883.77
2018-11-06T06:18:51.910Z,100912.11
2018-11-06T06:19:53.278Z,100911.56
2018-11-06T06:20:53.497Z,100911.45
2018-11-06T06:21:54.758Z,100910.44
2018-11-06T06:22:54.082Z,100910.28
2018-11-06T06:23:54.500Z,100910.25
2018-11-06T06:24:54.830Z,100910.25
2018-11-06T06:25:55.398Z,100910.06
2018-11-06T06:26:54.784Z,100910.11
2018-11-06T06:27:56.169Z,100910.20
2018-11-06T06:28:56.889Z,100910.09
2018-11-06T06:29:57.240Z,100910.48
2018-11-06T06:30:57.472Z,100910.63
2018-11-06T06:31:57.838Z,100911.11
2018-11-06T06:33:00.984Z,100912.88
2018-11-06T06:33:58.414Z,100914.02
2018-11-06T06:34:59.396Z,100914.86
2018-11-06T06:35:58.669Z,100915.78
2018-11-06T06:37:00.404Z,100915.95
2018-11-06T06:38:00.816Z,100916.51
2018-11-06T06:39:01.136Z,100917.27
2018-11-06T06:40:01.639Z,100917.69
2018-11-06T06:41:01.293Z,100917.94
2018-11-06T06:42:01.436Z,100918.16
2018-11-06T06:43:02.826Z,100918.50
2018-11-06T06:44:03.203Z,100918.09
2018-11-06T06:45:03.478Z,100917.89
2018-11-06T06:46:03.790Z,100918.28
2018-11-06T06:47:05.083Z,100917.87
2018-11-06T06:48:04.699Z,100918.17
2018-11-06T06:49:04.986Z,100918.60
2018-11-06T06:50:06.314Z,100918.66
2018-11-06T06:51:05.797Z,100919.39
2018-11-06T06:52:06.484Z,100920.40
2018-11-06T06:53:06.806Z,100921.41
2018-11-06T06:54:07.206Z,100922.46
2018-11-06T06:55:06.944Z,100923.47
2018-11-06T06:56:07.220Z,100924.47
2018-11-06T06:57:08.998Z,100925.82
2018-11-06T06:58:09.316Z,100926.47
2018-11-06T06:59:09.651Z,100927.39
2018-11-06T07:00:09.953Z,100928.03
2018-11-06T07:01:10.329Z,100928.87
2018-11-06T07:02:10.619Z,100928.96
2018-11-06T07:03:11.935Z,100929.30
2018-11-06T07:04:11.199Z,100930.02
2018-11-06T07:05:11.597Z,100930.78
2018-11-06T07:06:11.918Z,100931.11
2018-11-06T07:07:12.265Z,100932.29
2018-11-06T07:08:12.661Z,100933.21
2018-11-06T07:08:21.186Z,100954.47
2018-11-06T07:09:22.486Z,100953.71
2018-11-06T07:10:22.847Z,100952.88
2018-11-06T07:11:23.257Z,100952.95
2018-11-06T07:12:23.256Z,100952.55
2018-11-06T07:13:23.555Z,100951.63
2018-11-06T07:14:24.099Z,100951.00
2018-11-06T07:15:25.085Z,100950.25
2018-11-06T07:16:24.579Z,100949.72
2018-11-06T07:17:24.777Z,100949.11
2018-11-06T07:18:26.343Z,100948.50
2018-11-06T07:19:27.240Z,100948.59
2018-11-06T07:20:27.567Z,100947.39
2018-11-06T07:21:28.259Z,100947.61
2018-11-06T07:22:28.561Z,100947.54
2018-11-06T07:23:28.917Z,100947.01
2018-11-06T07:24:29.297Z,100946.73
2018-11-06T07:25:29.575Z,100946.23
2018-11-06T07:26:29.585Z,100946.04
2018-11-06T07:27:30.023Z,100945.59
2018-11-06T07:28:30.336Z,100945.06
2018-11-06T07:29:30.691Z,100944.42
2018-11-06T07:30:31.308Z,100943.31
2018-11-06T07:31:31.725Z,100943.18
2018-11-06T07:32:32.023Z,100942.32
2018-11-06T07:33:32.621Z,100941.52
2018-11-06T07:34:33.987Z,100941.05
2018-11-06T07:35:32.575Z,100941.16
2018-11-06T07:36:33.321Z,100941.03
2018-11-06T07:37:34.968Z,100941.66
2018-11-06T07:38:35.614Z,100941.94
2018-11-06T07:39:35.892Z,100942.45
2018-11-06T07:40:36.788Z,100942.98
2018-11-06T07:41:36.172Z,100943.16
2018-11-06T07:42:37.684Z,100943.95
2018-11-06T07:43:38.075Z,100944.45
2018-11-06T07:44:37.426Z,100945.42
2018-11-06T07:45:38.906Z,100946.26
2018-11-06T07:46:39.580Z,100946.52
2018-11-06T07:47:40.443Z,100947.06
2018-11-06T07:48:40.920Z,100947.31
2018-11-06T07:49:41.422Z,100947.98
2018-11-06T07:50:40.698Z,100948.08
2018-11-06T07:51:42.042Z,100947.61
2018-11-06T07:52:41.452Z,100947.53
2018-11-06T07:53:42.941Z,100948.12
2018-11-06T07:54:43.592Z,100948.07
2018-11-06T07:55:44.974Z,100948.08
2018-11-06T07:56:43.384Z,100948.33
2018-11-06T07:57:44.650Z,100948.75
2018-11-06T07:58:45.156Z,100948.86
2018-11-06T07:59:45.468Z,100949.20
2018-11-06T07:59:53.925Z,100956.92
2018-11-06T08:00:55.202Z,100956.70
2018-11-06T08:01:55.517Z,100957.09
2018-11-06T08:02:55.968Z,100956.95
2018-11-06T08:03:56.629Z,100957.71
2018-11-06T08:04:56.920Z,100958.35
2018-11-06T08:05:57.185Z,100959.11
2018-11-06T08:06:57.663Z,100959.75
2018-11-06T08:07:59.168Z,100960.70
2018-11-06T08:08:58.523Z,100961.55
2018-11-06T08:09:58.853Z,100961.88
2018-11-06T08:10:59.136Z,100962.58
2018-11-06T08:11:59.566Z,100962.75
2018-11-06T08:12:59.980Z,100963.53
2018-11-06T08:14:00.246Z,100963.90
2018-11-06T08:15:00.643Z,100964.42
2018-11-06T08:16:00.016Z,100964.96
2018-11-06T08:17:01.046Z,100965.80
2018-11-06T08:18:01.370Z,100967.01
2018-11-06T08:19:00.584Z,100967.51
2018-11-06T08:20:02.006Z,100968.52
2018-11-06T08:21:02.302Z,100969.53
2018-11-06T08:22:02.510Z,100970.34
2018-11-06T08:23:02.834Z,100970.84
2018-11-06T08:24:03.170Z,100971.98
2018-11-06T08:25:02.805Z,100972.77
2018-11-06T08:26:04.225Z,100973.33
2018-11-06T08:27:04.549Z,100973.89
2018-11-06T08:28:35.846Z,100977.74
2018-11-06T08:29:37.039Z,100977.16
2018-11-06T08:30:37.442Z,100976.98
2018-11-06T08:31:37.117Z,100976.82
2018-11-06T08:32:37.758Z,100976.45
2018-11-06T08:33:37.699Z,100975.66
2018-11-06T08:34:39.789Z,100975.59
2018-11-06T08:35:39.375Z,100975.44
2018-11-06T08:36:39.699Z,100974.83
2018-11-06T08:37:39.113Z,100974.26
2018-11-06T08:38:40.651Z,100974.06
2018-11-06T08:39:40.951Z,100973.92
2018-11-06T08:40:41.303Z,100973.39
2018-11-06T08:41:41.857Z,100972.69
2018-11-06T08:42:42.104Z,100972.58
2018-11-06T08:43:42.552Z,100972.30
2018-11-06T08:44:42.860Z,100972.14
2018-11-06T08:45:43.182Z,100971.95
2018-11-06T08:46:43.490Z,100972.14
2018-11-06T08:47:43.842Z,100972.42
2018-11-06T08:49:16.887Z,100971.77
2018-11-06T08:50:17.456Z,100971.17
2018-11-06T08:51:17.762Z,100971.17
2018-11-06T08:52:18.070Z,100970.33
2018-11-06T08:53:18.588Z,100969.66
2018-11-06T08:54:18.874Z,100968.40
2018-11-06T08:55:19.290Z,100968.11
2018-11-06T08:56:19.600Z,100967.16
2018-11-06T08:57:20.199Z,100966.82
2018-11-06T08:58:20.633Z,100965.78
2018-11-06T08:59:21.017Z,100965.02
2018-11-06T09:00:21.326Z,100964.06
2018-11-06T09:01:21.846Z,100962.97
2018-11-06T09:02:22.267Z,100961.52
2018-11-06T09:03:22.633Z,100959.88
2018-11-06T09:04:22.984Z,100958.42
2018-11-06T09:05:24.265Z,100956.95
2018-11-06T09:06:23.578Z,100955.24
2018-11-06T09:07:23.873Z,100953.86
2018-11-06T09:08:24.633Z,100952.23
2018-11-06T09:09:24.923Z,100951.14
2018-11-06T09:10:25.222Z,100949.51
2018-11-06T09:11:25.579Z,100948.58
2018-11-06T09:12:25.895Z,100947.41
2018-11-06T09:13:26.331Z,100946.14
2018-11-06T09:14:26.660Z,100945.25
2018-11-06T09:15:25.935Z,100944.36
2018-11-06T09:16:27.230Z,100943.66
2018-11-06T09:17:27.487Z,100942.72
2018-11-06T09:18:28.925Z,100942.23
2018-11-06T09:19:28.250Z,100941.56
2018-11-06T09:20:28.998Z,100940.62
2018-11-06T09:21:29.286Z,100940.12
2018-11-06T09:22:29.756Z,100939.38
2018-11-06T09:23:30.131Z,100939.27
2018-11-06T09:24:29.373Z,100938.94
2018-11-06T09:25:30.738Z,100938.59
2018-11-06T09:26:31.125Z,100937.72
2018-11-06T09:27:30.426Z,100937.05
2018-11-06T09:28:32.051Z,100936.20
2018-11-06T09:29:32.449Z,100935.89
2018-11-06T09:30:32.670Z,100935.70
2018-11-06T09:31:32.973Z,100934.64
2018-11-06T09:32:33.494Z,100933.91
2018-11-06T09:33:33.845Z,100933.32
2018-11-06T09:34:34.242Z,100932.56
2018-11-06T09:34:42.735Z,100919.89
2018-11-06T09:35:43.975Z,100919.50
2018-11-06T09:36:44.255Z,100919.22
2018-11-06T09:37:44.516Z,100919.38
2018-11-06T09:38:45.048Z,100919.55
2018-11-06T09:39:45.487Z,100919.61
2018-11-06T09:40:45.806Z,100919.77
2018-11-06T09:41:47.456Z,100920.41
2018-11-06T09:42:46.744Z,100920.41
2018-11-06T09:43:47.060Z,100920.38
2018-11-06T09:44:47.500Z,100920.86
2018-11-06T09:45:47.751Z,100921.33
2018-11-06T09:46:48.257Z,100921.13
2018-11-06T09:47:48.691Z,100921.61
2018-11-06T09:48:48.969Z,100921.49
2018-11-06T09:49:48.205Z,100921.34
2018-11-06T09:50:49.553Z,100921.48
2018-11-06T09:51:49.980Z,100921.16
2018-11-06T09:52:50.568Z,100921.80
2018-11-06T09:53:50.646Z,100921.66
2018-11-06T09:54:51.382Z,100921.80
2018-11-06T09:55:51.756Z,100921.34
2018-11-06T09:56:51.985Z,100920.94
2018-11-06T09:57:52.622Z,100921.13
2018-11-06T09:58:52.963Z,100921.83
2018-11-06T09:59:53.012Z,100922.31
2018-11-06T10:00:53.712Z,100922.76
2018-11-06T10:01:53.996Z,100923.30
2018-11-06T10:02:54.349Z,100923.38
2018-11-06T10:03:54.864Z,100923.87
2018-11-06T10:04:55.274Z,100923.98
2018-11-06T10:05:55.562Z,100923.77
2018-11-06T10:06:56.219Z,100923.95
2018-11-06T10:07:55.483Z,100924.06
2018-11-06T10:08:55.453Z,100924.16
2018-11-06T10:09:56.823Z,100924.10
2018-11-06T10:10:57.165Z,100924.11
2018-11-06T10:11:57.477Z,100924.19
2018-11-06T10:12:57.761Z,100924.11
2018-11-06T10:13:58.031Z,100924.58
2018-11-06T10:14:58.307Z,100924.91
2018-11-06T10:15:58.575Z,100925.11
2018-11-06T10:16:58.949Z,100925.83
2018-11-06T10:17:59.228Z,100925.82
2018-11-06T10:18:59.761Z,100925.70
2018-11-06T10:20:00.060Z,100924.90
2018-11-06T10:20:08.468Z,100916.10
2018-11-06T10:21:09.833Z,100916.02
2018-11-06T10:22:09.093Z,100915.94
2018-11-06T10:23:10.437Z,100916.06
2018-11-06T10:24:10.795Z,100916.06
2018-11-06T10:25:11.098Z,100916.11
2018-11-06T10:26:11.694Z,100916.23
2018-11-06T10:27:12.024Z,100915.95
2018-11-06T10:28:12.565Z,100916.13
2018-11-06T10:29:12.893Z,100916.21
2018-11-06T10:30:13.486Z,100916.10
2018-11-06T10:31:13.735Z,100916.02
2018-11-06T10:32:14.154Z,100916.07
2018-11-06T10:33:14.674Z,100915.87
2018-11-06T10:34:15.074Z,100915.75
2018-11-06T10:35:15.377Z,100916.01
2018-11-06T10:36:15.657Z,100915.72
2018-11-06T10:37:15.937Z,100914.84
2018-11-06T10:38:16.260Z,100914.27
2018-11-06T10:39:15.519Z,100913.12
2018-11-06T10:40:17.209Z,100912.33
2018-11-06T10:41:17.725Z,100911.37
2018-11-06T10:42:18.567Z,100910.44
2018-11-06T10:43:19.266Z,100909.69
2018-11-06T10:44:19.985Z,100908.59
2018-11-06T10:45:20.448Z,100907.83
2018-11-06T10:46:19.745Z,100905.80
2018-11-06T10:47:21.237Z,100904.67
2018-11-06T10:48:21.694Z,100902.86
2018-11-06T10:49:22.129Z,100901.13
2018-11-06T10:50:22.401Z,100898.81
2018-11-06T10:51:22.473Z,100896.79
2018-11-06T10:52:22.761Z,100894.89
2018-11-06T10:53:23.115Z,100892.45
2018-11-06T10:54:23.562Z,100890.45
2018-11-06T10:55:23.663Z,100887.92
2018-11-06T10:56:24.193Z,100886.49
2018-11-06T10:57:24.606Z,100885.17
2018-11-06T10:58:24.937Z,100882.98
2018-11-06T10:59:25.344Z,100881.00
2018-11-06T11:00:25.644Z,100879.22
2018-11-06T11:01:25.938Z,100877.10
2018-11-06T11:02:26.457Z,100874.87
2018-11-06T11:03:29.960Z,100872.99
2018-11-06T11:04:27.457Z,100870.87
2018-11-06T11:04:35.909Z,100838.02
2018-11-06T11:05:37.252Z,100837.42
2018-11-06T11:06:36.522Z,100837.42
2018-11-06T11:07:38.015Z,100837.16
2018-11-06T11:08:38.918Z,100836.95
2018-11-06T11:09:40.200Z,100836.41
2018-11-06T11:10:39.628Z,100836.14
2018-11-06T11:11:40.130Z,100835.83
2018-11-06T11:12:40.786Z,100835.41
2018-11-06T11:13:40.365Z,100835.06
2018-11-06T11:14:41.932Z,100834.71
2018-11-06T11:15:43.613Z,100834.27
2018-11-06T11:16:42.887Z,100833.34
2018-11-06T11:17:43.288Z,100832.47
2018-11-06T11:18:42.579Z,100831.58
2018-11-06T11:19:43.886Z,100830.96
2018-11-06T11:20:44.144Z,100830.15
2018-11-06T11:21:44.432Z,100828.99